ADDS METAR Data INFO
IDs: Format: Raw Decoded Include TAF

Data at: 2340 UTC 15 Dec 2017

KAMA 152253Z 22011KT 10SM CLR 11/M08 A3008 RMK AO2 SLP185 T01111083
KAMA 152153Z 23015G22KT 10SM CLR 12/M08 A3009 RMK AO2 SLP187 T01221078
KAMA 152053Z 24017KT 10SM CLR 12/M07 A3010 RMK AO2 SLP191 T01221072 56034
KAMA 151953Z 25015G24KT 10SM CLR 12/M05 A3013 RMK AO2 SLP202 T01171050
KAMA 151853Z 25015KT 10SM CLR 11/M04 A3016 RMK AO2 PK WND 24026/1836 SLP212 T01061039
KAMA 151753Z 25020G24KT 10SM CLR 08/M03 A3021 RMK AO2 PK WND 25026/1719 SLP233 T00831028 10083 21061 58019
KAMA 151653Z 23014KT 10SM CLR 06/M04 A3026 RMK AO2 SLP247 T00561039
KAMA 151553Z 23012KT 10SM CLR 02/M02 A3026 RMK AO2 SLP253 T00221017
KAMA 151453Z 20007KT 10SM CLR M03/M04 A3027 RMK AO2 SLP263 T10331044 55000
KAMA 151353Z 22006KT 10SM CLR M06/M07 A3026 RMK AO2 SLP261 T10561067
KAMA 151253Z 27006KT 10SM CLR M04/M06 A3027 RMK AO2 SLP262 T10441061
KAMA 151153Z 28007KT 10SM CLR M04/M06 A3027 RMK AO2 SLP263 T10441056 11017 21050 58009
KAMA 151053Z AUTO 28007KT 10SM CLR M04/M06 A3028 RMK AO2 SLP264 T10391056
KAMA 150953Z AUTO 28007KT 10SM CLR M04/M06 A3030 RMK AO2 SLP268 T10391056
KAMA 150853Z AUTO 28008KT 10SM CLR M04/M06 A3030 RMK AO2 SLP269 T10391056 55005
KAMA 150753Z AUTO 29005KT 10SM CLR M03/M04 A3030 RMK AO2 SLP267 T10331044
KAMA 150653Z AUTO 29008KT 10SM CLR M02/M04 A3031 RMK AO2 SLP269 T10221039
KAMA 150553Z AUTO 30005KT 10SM CLR M02/M04 A3032 RMK AO2 SLP272 T10171044 10056 21017 400781044 51015
KAMA 150453Z 32009KT 10SM FEW070 02/M03 A3031 RMK AO2 SLP267 T00171033
KAMA 150353Z 35009KT 10SM BKN065 03/M04 A3029 RMK AO2 SLP258 T00331039
KAMA 150253Z 34013KT 10SM OVC080 04/M04 A3027 RMK AO2 SLP257 T00441039 51020
KAMA 150153Z 01007G17KT 10SM OVC050 05/M03 A3025 RMK AO2 SLP254 T00501033
KAMA 150053Z 36009KT 10SM FEW043 BKN060 OVC075 06/M03 A3023 RMK AO2 SLP246 T00561033
KAMA 142353Z AUTO 36010KT 10SM SCT075 BKN090 BKN110 05/M03 A3020 RMK AO2 SLP237 T00501033 10078 20050 53008
KAMA 142253Z 36014KT 10SM CLR 07/M03 A3017 RMK AO2 SLP220 T00721033
KAMA 142153Z 32013KT 10SM CLR 07/M02 A3016 RMK AO2 SLP218 T00721017
KAMA 142109Z 34014KT 10SM FEW029 07/M02 A3017 RMK AO2 T00721017
KAMA 142053Z 35014KT 10SM BKN029 07/M02 A3018 RMK AO2 SLP221 T00671017 56016
KAMA 142013Z 35013KT 10SM BKN029 07/M02 A3018 RMK AO2 T00671017
KAMA 141953Z 35015G23KT 10SM BKN030 07/M02 A3018 RMK AO2 SLP223 T00721017
KAMA 141853Z 35013KT 10SM CLR 07/M03 A3019 RMK AO2 SLP226 T00721028
KAMA 141753Z 35013G21KT 10SM CLR 07/M06 A3023 RMK AO2 SLP235 T00671061 10067 21044 50013
KAMA 141653Z 01016G22KT 10SM CLR 06/M07 A3024 RMK AO2 SLP241 T00561067
KAMA 141553Z 01013KT 10SM CLR 04/M06 A3022 RMK AO2 SLP236 T00391061
KAMA 141453Z 36008KT 10SM CLR 00/M07 A3019 RMK AO2 SLP227 T00001067 51028
KAMA 141353Z AUTO 35008KT 10SM CLR M03/M08 A3016 RMK AO2 SLP225 T10331083
KAMA 141253Z AUTO 01008KT 10SM CLR M04/M09 A3012 RMK AO2 SLP209 T10391089
KAMA 141153Z AUTO 01007KT 10SM CLR M03/M09 A3009 RMK AO2 SLP192 T10281089 10022 21028 51014